createdAt,value
2018-12-17T00:00:17.912Z,14.45
2018-12-17T00:00:49.012Z,14.80
2018-12-17T00:01:20.149Z,14.38
2018-12-17T00:01:51.294Z,12.98
2018-12-17T00:02:22.394Z,13.78
2018-12-17T00:02:53.502Z,13.35
2018-12-17T00:03:24.607Z,13.15
2018-12-17T00:03:55.723Z,13.45
2018-12-17T00:04:26.815Z,13.22
2018-12-17T00:04:57.916Z,12.82
2018-12-17T00:05:30.555Z,12.28
2018-12-17T00:06:01.840Z,13.80
2018-12-17T00:06:32.954Z,12.95
2018-12-17T00:07:04.104Z,14.10
2018-12-17T00:07:35.205Z,10.93
2018-12-17T00:08:06.308Z,11.80
2018-12-17T00:08:37.412Z,13.38
2018-12-17T00:09:08.505Z,12.37
2018-12-17T00:09:39.599Z,13.70
2018-12-17T00:10:10.702Z,12.90
2018-12-17T00:10:41.809Z,11.78
2018-12-17T00:11:12.908Z,14.05
2018-12-17T00:11:44.010Z,13.15
2018-12-17T00:12:16.652Z,11.33
2018-12-17T00:12:47.992Z,11.57
2018-12-17T00:13:19.099Z,12.70
2018-12-17T00:13:50.200Z,12.88
2018-12-17T00:14:21.296Z,10.63
2018-12-17T00:14:52.442Z,13.15
2018-12-17T00:15:23.541Z,13.72
2018-12-17T00:15:54.655Z,12.25
2018-12-17T00:16:25.769Z,11.48
2018-12-17T00:16:56.878Z,13.13
2018-12-17T00:17:27.985Z,11.83
2018-12-17T00:17:59.089Z,13.13
2018-12-17T00:18:30.193Z,13.25
2018-12-17T00:19:01.298Z,12.78
2018-12-17T00:19:32.399Z,13.15
2018-12-17T00:20:03.537Z,14.20
2018-12-17T00:20:34.633Z,14.15
2018-12-17T00:21:05.731Z,13.45
2018-12-17T00:21:36.861Z,13.93
2018-12-17T00:22:07.957Z,10.82
2018-12-17T00:22:39.055Z,11.60
2018-12-17T00:23:10.152Z,13.43
2018-12-17T00:23:41.256Z,13.05
2018-12-17T00:24:12.362Z,13.78
2018-12-17T00:24:43.466Z,10.40
2018-12-17T00:25:14.568Z,11.70
2018-12-17T00:25:45.674Z,13.78
2018-12-17T00:26:16.808Z,13.48
2018-12-17T00:26:47.951Z,9.40
2018-12-17T00:27:19.050Z,13.30
2018-12-17T00:27:50.169Z,12.03
2018-12-17T00:28:21.277Z,12.63
2018-12-17T00:28:52.378Z,13.20
2018-12-17T00:29:23.473Z,12.15
2018-12-17T00:29:54.628Z,12.75
2018-12-17T00:30:25.731Z,14.40
2018-12-17T00:30:56.840Z,14.20
2018-12-17T00:31:27.944Z,13.60
2018-12-17T00:31:59.052Z,14.23
2018-12-17T00:32:30.169Z,14.33
2018-12-17T00:33:01.330Z,13.38
2018-12-17T00:33:32.470Z,11.10
2018-12-17T00:34:03.562Z,9.25
2018-12-17T00:34:35.785Z,13.00
2018-12-17T00:35:06.896Z,13.93
2018-12-17T00:35:38.012Z,14.87
2018-12-17T00:36:09.120Z,13.45
2018-12-17T00:36:40.220Z,14.60
2018-12-17T00:37:11.325Z,15.23
2018-12-17T00:37:42.439Z,15.03
2018-12-17T00:38:13.548Z,14.43
2018-12-17T00:38:44.655Z,14.73
2018-12-17T00:39:15.769Z,14.43
2018-12-17T00:39:46.918Z,14.73
2018-12-17T00:40:18.020Z,13.28
2018-12-17T00:40:49.139Z,12.80
2018-12-17T00:41:20.258Z,14.28
2018-12-17T00:41:51.398Z,14.28
2018-12-17T00:42:22.500Z,15.38
2018-12-17T00:42:53.596Z,12.78
2018-12-17T00:43:24.731Z,13.48
2018-12-17T00:43:55.864Z,12.65
2018-12-17T00:44:27.122Z,12.95
2018-12-17T00:44:58.491Z,11.78
2018-12-17T00:45:29.601Z,12.55
2018-12-17T00:46:00.768Z,13.28
2018-12-17T00:46:31.894Z,14.53
2018-12-17T00:47:03.025Z,13.30
2018-12-17T00:47:34.142Z,12.10
2018-12-17T00:48:05.381Z,14.38
2018-12-17T00:48:36.484Z,14.00
2018-12-17T00:49:07.651Z,13.90
2018-12-17T00:49:38.763Z,14.50
2018-12-17T00:50:09.882Z,15.28
2018-12-17T00:50:41.024Z,13.08
2018-12-17T00:51:12.129Z,14.35
2018-12-17T00:51:43.232Z,13.95
2018-12-17T00:52:14.332Z,14.58
2018-12-17T00:52:45.443Z,13.35
2018-12-17T00:53:16.541Z,13.28
2018-12-17T00:53:47.645Z,14.03
2018-12-17T00:54:18.747Z,13.83
2018-12-17T00:54:49.849Z,13.18
2018-12-17T00:55:20.958Z,10.00
2018-12-17T00:55:52.126Z,13.38
2018-12-17T00:56:23.229Z,12.60
2018-12-17T00:56:54.323Z,13.18
2018-12-17T00:57:25.433Z,13.85
2018-12-17T00:57:56.540Z,12.40
2018-12-17T00:58:27.640Z,12.10
2018-12-17T00:58:58.731Z,12.03
2018-12-17T00:59:29.835Z,13.18
2018-12-17T01:00:00.961Z,12.50
2018-12-17T01:00:32.070Z,12.10
2018-12-17T01:01:03.200Z,12.40
2018-12-17T01:01:34.296Z,11.63
2018-12-17T01:02:05.404Z,12.18
2018-12-17T01:02:36.522Z,11.30
2018-12-17T01:03:07.635Z,13.18
2018-12-17T01:03:38.753Z,12.30
2018-12-17T01:04:09.884Z,12.43
2018-12-17T01:04:41.070Z,13.03
2018-12-17T01:05:12.188Z,12.60
2018-12-17T01:05:43.328Z,13.38
2018-12-17T01:06:14.556Z,13.05
2018-12-17T01:06:45.709Z,11.35
2018-12-17T01:07:16.836Z,12.85
2018-12-17T01:07:48.006Z,12.75
2018-12-17T01:08:19.125Z,11.80
2018-12-17T01:08:50.305Z,11.85
2018-12-17T01:09:21.579Z,12.60
2018-12-17T01:09:52.696Z,12.20
2018-12-17T01:10:23.804Z,12.60
2018-12-17T01:10:54.944Z,11.75
2018-12-17T01:11:26.061Z,11.97
2018-12-17T01:11:57.186Z,12.93
2018-12-17T01:12:28.291Z,12.65
2018-12-17T01:12:59.400Z,10.50
2018-12-17T01:13:30.505Z,12.40
2018-12-17T01:14:01.628Z,12.88
2018-12-17T01:14:32.764Z,12.33
2018-12-17T01:15:03.898Z,12.82
2018-12-17T01:15:35.021Z,12.47
2018-12-17T01:16:06.129Z,10.60
2018-12-17T01:16:37.226Z,9.80
2018-12-17T01:17:08.331Z,12.40
2018-12-17T01:17:39.441Z,13.15
2018-12-17T01:18:10.549Z,12.00
2018-12-17T01:18:41.670Z,12.78
2018-12-17T01:19:12.791Z,13.00
2018-12-17T01:19:43.938Z,12.55
2018-12-17T01:20:15.089Z,14.45
2018-12-17T01:20:46.201Z,13.58
2018-12-17T01:21:17.324Z,13.70
2018-12-17T01:21:48.429Z,11.22
2018-12-17T01:22:19.544Z,12.68
2018-12-17T01:22:50.641Z,12.37
2018-12-17T01:23:21.748Z,12.50
2018-12-17T01:23:53.213Z,10.75
2018-12-17T01:24:24.354Z,12.73
2018-12-17T01:24:55.561Z,12.98
2018-12-17T01:25:26.666Z,12.98
2018-12-17T01:25:58.590Z,11.63
2018-12-17T01:26:29.761Z,10.80
2018-12-17T01:27:01.131Z,13.32
2018-12-17T01:27:32.275Z,12.03
2018-12-17T01:28:03.391Z,12.15
2018-12-17T01:28:34.499Z,12.50
2018-12-17T01:29:05.634Z,11.88
2018-12-17T01:29:36.734Z,12.35
2018-12-17T01:30:07.840Z,12.23
2018-12-17T01:30:38.936Z,12.37
2018-12-17T01:31:10.034Z,12.73
2018-12-17T01:31:41.128Z,12.37
2018-12-17T01:32:12.271Z,12.37
2018-12-17T01:32:43.375Z,10.80
2018-12-17T01:33:14.477Z,9.88
2018-12-17T01:33:45.589Z,11.20
2018-12-17T01:34:16.684Z,11.78
2018-12-17T01:34:47.784Z,12.30
2018-12-17T01:35:18.892Z,11.85
2018-12-17T01:35:49.998Z,11.80
2018-12-17T01:36:21.103Z,11.90
2018-12-17T01:36:52.205Z,9.40
2018-12-17T01:37:23.360Z,10.95
2018-12-17T01:37:54.473Z,11.55
2018-12-17T01:38:25.571Z,12.20
2018-12-17T01:38:56.677Z,12.28
2018-12-17T01:39:27.782Z,12.40
2018-12-17T01:39:58.885Z,11.85
2018-12-17T01:40:29.980Z,11.25
2018-12-17T01:41:01.079Z,11.63
2018-12-17T01:41:32.185Z,11.90
2018-12-17T01:42:03.323Z,10.65
2018-12-17T01:42:34.428Z,11.45
2018-12-17T01:43:05.594Z,11.90
2018-12-17T01:43:36.700Z,11.38
2018-12-17T01:44:07.811Z,11.20
2018-12-17T01:44:38.923Z,12.00
2018-12-17T01:45:10.037Z,11.60
2018-12-17T01:45:41.133Z,12.33
2018-12-17T01:46:12.278Z,12.30
2018-12-17T01:46:43.374Z,12.43
2018-12-17T01:47:14.467Z,12.10
2018-12-17T01:47:45.609Z,12.65
2018-12-17T01:48:16.845Z,12.30
2018-12-17T01:48:47.936Z,12.28
2018-12-17T01:49:19.042Z,12.23
2018-12-17T01:49:50.158Z,12.07
2018-12-17T01:50:21.283Z,10.90
2018-12-17T01:50:52.393Z,11.12
2018-12-17T01:51:23.503Z,11.63
2018-12-17T01:51:54.637Z,10.95
2018-12-17T01:52:25.746Z,10.95
2018-12-17T01:52:56.860Z,11.12
2018-12-17T01:53:27.965Z,11.75
2018-12-17T01:53:59.072Z,11.40
2018-12-17T01:54:30.174Z,10.65
2018-12-17T01:55:01.288Z,10.63
2018-12-17T01:55:32.434Z,11.15
2018-12-17T01:56:03.542Z,10.15
2018-12-17T01:56:34.644Z,10.13
2018-12-17T01:57:05.788Z,9.98
2018-12-17T01:57:36.894Z,11.88
2018-12-17T01:58:08.003Z,11.57
2018-12-17T01:58:39.139Z,12.10
2018-12-17T01:59:10.258Z,10.13
2018-12-17T01:59:41.401Z,11.10
2018-12-17T02:00:12.513Z,11.35
2018-12-17T02:00:43.622Z,10.58
2018-12-17T02:01:14.785Z,10.45
2018-12-17T02:01:45.885Z,11.53
2018-12-17T02:02:16.985Z,11.38
2018-12-17T02:02:48.095Z,11.20
2018-12-17T02:03:19.204Z,11.48
2018-12-17T02:03:50.381Z,9.53
2018-12-17T02:04:21.473Z,11.25
2018-12-17T02:04:52.576Z,10.18
2018-12-17T02:05:23.688Z,10.58
2018-12-17T02:05:54.798Z,12.03
2018-12-17T02:06:25.952Z,11.08
2018-12-17T02:06:57.100Z,11.60
2018-12-17T02:07:28.244Z,11.18
2018-12-17T02:07:59.349Z,11.12
2018-12-17T02:08:30.446Z,10.63
2018-12-17T02:09:01.556Z,9.45
2018-12-17T02:09:32.659Z,11.50
2018-12-17T02:10:03.764Z,11.57
2018-12-17T02:10:34.859Z,11.48
2018-12-17T02:11:05.974Z,11.25
2018-12-17T02:11:37.082Z,10.68
2018-12-17T02:12:08.194Z,12.35
2018-12-17T02:12:39.328Z,11.22
2018-12-17T02:13:10.436Z,11.08
2018-12-17T02:13:41.557Z,11.88
2018-12-17T02:14:12.663Z,10.85
2018-12-17T02:14:43.764Z,9.88
2018-12-17T02:15:16.286Z,11.88
2018-12-17T02:15:47.597Z,10.90
2018-12-17T02:16:18.711Z,11.65
2018-12-17T02:16:50.140Z,11.83
2018-12-17T02:17:22.345Z,11.35
2018-12-17T02:17:53.519Z,11.43
2018-12-17T02:18:24.668Z,11.90
2018-12-17T02:18:55.771Z,11.90
2018-12-17T02:19:26.883Z,10.43
2018-12-17T02:19:58.029Z,10.30
2018-12-17T02:20:29.133Z,11.35
2018-12-17T02:21:00.249Z,10.82
2018-12-17T02:21:31.361Z,11.53
2018-12-17T02:22:02.466Z,12.40
2018-12-17T02:22:33.566Z,11.40
2018-12-17T02:23:04.674Z,12.63
2018-12-17T02:23:35.776Z,10.23
2018-12-17T02:24:06.881Z,9.35
2018-12-17T02:24:38.024Z,10.00
2018-12-17T02:25:09.129Z,12.25
2018-12-17T02:25:40.233Z,10.88
2018-12-17T02:26:11.328Z,10.72
2018-12-17T02:26:42.429Z,10.08
2018-12-17T02:27:13.577Z,11.35
2018-12-17T02:27:44.676Z,11.65
2018-12-17T02:28:15.796Z,11.12
2018-12-17T02:28:46.896Z,11.10
2018-12-17T02:29:18.004Z,11.90
2018-12-17T02:29:49.107Z,12.37
2018-12-17T02:30:20.261Z,12.35
2018-12-17T02:30:51.369Z,12.20
2018-12-17T02:31:22.495Z,12.80
2018-12-17T02:31:53.609Z,11.45
2018-12-17T02:32:24.712Z,11.55
2018-12-17T02:32:55.816Z,11.90
2018-12-17T02:33:26.960Z,10.30
2018-12-17T02:33:58.065Z,11.35
2018-12-17T02:34:29.170Z,11.48
2018-12-17T02:35:00.279Z,12.23
2018-12-17T02:35:31.392Z,12.82
2018-12-17T02:36:02.496Z,10.68
2018-12-17T02:36:33.645Z,12.33
2018-12-17T02:37:04.822Z,11.30
2018-12-17T02:37:37.113Z,10.80
2018-12-17T02:38:08.225Z,11.40
2018-12-17T02:38:39.337Z,12.35
2018-12-17T02:39:10.447Z,12.13
2018-12-17T02:39:41.674Z,12.20
2018-12-17T02:40:12.781Z,12.45
2018-12-17T02:40:43.880Z,12.23
2018-12-17T02:41:14.986Z,12.95
2018-12-17T02:41:46.129Z,13.00
2018-12-17T02:42:17.267Z,13.68
2018-12-17T02:42:48.409Z,13.18
2018-12-17T02:43:19.535Z,12.70
2018-12-17T02:43:50.652Z,11.40
2018-12-17T02:44:21.756Z,12.15
2018-12-17T02:44:52.857Z,12.00
2018-12-17T02:45:23.976Z,10.63
2018-12-17T02:45:55.083Z,11.60
2018-12-17T02:46:26.225Z,11.28
2018-12-17T02:46:57.325Z,11.48
2018-12-17T02:47:28.446Z,12.28
2018-12-17T02:47:59.589Z,10.58
2018-12-17T02:48:30.701Z,11.83
2018-12-17T02:49:01.807Z,12.90
2018-12-17T02:49:32.911Z,12.95
2018-12-17T02:50:04.010Z,14.13
2018-12-17T02:50:35.112Z,13.55
2018-12-17T02:51:06.259Z,12.85
2018-12-17T02:51:37.374Z,12.45
2018-12-17T02:52:08.485Z,13.60
2018-12-17T02:52:40.104Z,13.28
2018-12-17T02:53:11.212Z,8.78
2018-12-17T02:53:42.320Z,10.18
2018-12-17T02:54:13.432Z,12.37
2018-12-17T02:54:44.546Z,11.45
2018-12-17T02:55:15.655Z,12.50
2018-12-17T02:55:46.764Z,13.10
2018-12-17T02:56:17.931Z,12.18
2018-12-17T02:56:49.161Z,11.70
2018-12-17T02:57:20.264Z,10.98
2018-12-17T02:57:51.428Z,11.12
2018-12-17T02:58:22.537Z,10.55
2018-12-17T02:58:53.640Z,11.38
2018-12-17T02:59:24.744Z,9.78
2018-12-17T02:59:55.849Z,11.70
2018-12-17T03:00:26.951Z,11.53
2018-12-17T03:00:58.072Z,10.23
2018-12-17T03:01:29.163Z,11.70
2018-12-17T03:02:00.292Z,11.22
2018-12-17T03:02:31.421Z,11.38
2018-12-17T03:03:02.591Z,11.00
2018-12-17T03:03:33.694Z,10.98
2018-12-17T03:04:04.809Z,11.95
2018-12-17T03:04:35.914Z,10.82
2018-12-17T03:05:07.018Z,11.55
2018-12-17T03:05:38.125Z,10.25
2018-12-17T03:06:09.248Z,10.72
2018-12-17T03:06:40.365Z,10.35
2018-12-17T03:07:11.514Z,11.48
2018-12-17T03:07:42.619Z,11.88
2018-12-17T03:08:13.742Z,11.38
2018-12-17T03:08:44.850Z,11.33
2018-12-17T03:09:15.953Z,11.40
2018-12-17T03:09:47.053Z,11.25
2018-12-17T03:10:18.173Z,12.30
2018-12-17T03:10:49.272Z,12.37
2018-12-17T03:11:20.382Z,12.30
2018-12-17T03:11:51.532Z,11.33
2018-12-17T03:12:22.635Z,11.97
2018-12-17T03:12:53.747Z,12.88
2018-12-17T03:13:24.899Z,11.83
2018-12-17T03:13:56.100Z,10.82
2018-12-17T03:14:27.213Z,12.58
2018-12-17T03:14:58.311Z,11.20
2018-12-17T03:15:29.416Z,12.28
2018-12-17T03:16:00.529Z,11.85
2018-12-17T03:16:31.623Z,9.93
2018-12-17T03:17:02.761Z,10.93
2018-12-17T03:17:33.863Z,9.75
2018-12-17T03:18:04.972Z,11.85
2018-12-17T03:18:36.719Z,11.60
2018-12-17T03:19:07.812Z,11.57
2018-12-17T03:19:38.918Z,11.95
2018-12-17T03:20:10.030Z,11.75
2018-12-17T03:20:41.136Z,11.00
2018-12-17T03:21:12.282Z,10.23
2018-12-17T03:21:43.386Z,10.80
2018-12-17T03:22:14.544Z,12.15
2018-12-17T03:22:45.649Z,12.88
2018-12-17T03:23:16.756Z,12.47
2018-12-17T03:23:47.861Z,11.70
2018-12-17T03:24:18.962Z,12.07
2018-12-17T03:24:50.121Z,12.10
2018-12-17T03:25:21.254Z,10.88
2018-12-17T03:25:52.377Z,11.43
2018-12-17T03:26:23.522Z,11.08
2018-12-17T03:26:54.658Z,12.00
2018-12-17T03:27:25.783Z,12.50
2018-12-17T03:27:56.887Z,11.45
2018-12-17T03:28:27.994Z,10.98
2018-12-17T03:28:59.157Z,12.82
2018-12-17T03:29:30.261Z,10.45
2018-12-17T03:30:01.366Z,12.30
2018-12-17T03:30:32.474Z,11.95
2018-12-17T03:31:03.588Z,11.05
2018-12-17T03:31:34.691Z,11.33
2018-12-17T03:32:05.786Z,11.40
2018-12-17T03:32:36.901Z,10.72
2018-12-17T03:33:07.995Z,11.48
2018-12-17T03:33:39.113Z,11.57
2018-12-17T03:34:10.243Z,11.60
2018-12-17T03:34:41.358Z,12.13
2018-12-17T03:35:12.463Z,10.60
2018-12-17T03:35:43.562Z,11.60
2018-12-17T03:36:14.680Z,11.75
2018-12-17T03:36:45.784Z,11.57
2018-12-17T03:37:16.889Z,12.25
2018-12-17T03:37:48.025Z,12.50
2018-12-17T03:38:19.160Z,11.90
2018-12-17T03:38:50.298Z,10.38
2018-12-17T03:39:21.408Z,10.88
2018-12-17T03:39:52.516Z,11.28
2018-12-17T03:40:23.665Z,10.98
2018-12-17T03:40:54.814Z,10.82
2018-12-17T03:41:25.988Z,9.85
2018-12-17T03:41:57.152Z,11.08
2018-12-17T03:42:28.260Z,9.03
2018-12-17T03:42:59.365Z,11.15
2018-12-17T03:43:30.478Z,10.45
2018-12-17T03:44:01.579Z,11.40
2018-12-17T03:44:32.689Z,10.32
2018-12-17T03:45:03.791Z,12.20
2018-12-17T03:45:34.897Z,10.63
2018-12-17T03:46:06.008Z,8.90
2018-12-17T03:46:37.103Z,11.43
2018-12-17T03:47:08.235Z,10.03
2018-12-17T03:47:39.372Z,9.55
2018-12-17T03:48:10.472Z,9.10
2018-12-17T03:48:41.582Z,11.48
2018-12-17T03:49:12.681Z,11.85
2018-12-17T03:49:43.793Z,11.53
2018-12-17T03:50:14.890Z,12.73
2018-12-17T03:50:46.047Z,10.45
2018-12-17T03:51:17.258Z,11.68
2018-12-17T03:51:48.357Z,10.48
2018-12-17T03:52:19.502Z,11.63
2018-12-17T03:52:50.600Z,11.38
2018-12-17T03:53:21.704Z,11.65
2018-12-17T03:53:52.811Z,10.68
2018-12-17T03:54:23.916Z,11.50
2018-12-17T03:54:55.027Z,11.55
2018-12-17T03:55:26.130Z,10.53
2018-12-17T03:55:57.232Z,10.70
2018-12-17T03:56:28.401Z,11.00
2018-12-17T03:56:59.607Z,10.78
2018-12-17T03:57:30.711Z,10.00
2018-12-17T03:58:01.815Z,10.72
2018-12-17T03:58:32.928Z,10.82
2018-12-17T03:59:04.032Z,11.55
2018-12-17T03:59:35.140Z,11.55
2018-12-17T04:00:06.250Z,9.80
2018-12-17T04:00:37.359Z,10.75
2018-12-17T04:01:08.465Z,10.28
2018-12-17T04:01:39.604Z,10.70
2018-12-17T04:02:10.717Z,9.60
2018-12-17T04:02:41.828Z,7.72
2018-12-17T04:03:12.937Z,10.10
2018-12-17T04:03:44.037Z,10.53
2018-12-17T04:04:15.136Z,9.40
2018-12-17T04:04:46.236Z,11.33
2018-12-17T04:05:17.353Z,10.63
2018-12-17T04:05:48.552Z,11.08
2018-12-17T04:06:19.658Z,11.12
2018-12-17T04:06:50.765Z,9.85
2018-12-17T04:07:21.876Z,9.08
2018-12-17T04:07:52.977Z,9.40
2018-12-17T04:08:24.074Z,8.50
2018-12-17T04:08:55.180Z,10.82
2018-12-17T04:09:26.281Z,10.82
2018-12-17T04:09:57.383Z,11.05
2018-12-17T04:10:28.487Z,10.80
2018-12-17T04:10:59.628Z,9.25
2018-12-17T04:11:30.743Z,10.03
2018-12-17T04:12:01.859Z,10.35
2018-12-17T04:12:32.966Z,9.88
2018-12-17T04:13:04.064Z,9.65
2018-12-17T04:13:35.167Z,9.08
2018-12-17T04:14:06.312Z,9.30
2018-12-17T04:14:37.457Z,9.45
2018-12-17T04:15:08.591Z,10.28
2018-12-17T04:15:39.692Z,10.18
2018-12-17T04:16:10.805Z,9.83
2018-12-17T04:16:41.907Z,10.50
2018-12-17T04:17:13.013Z,10.30
2018-12-17T04:17:44.126Z,9.65
2018-12-17T04:18:15.233Z,10.35
2018-12-17T04:18:46.345Z,9.83
2018-12-17T04:19:17.446Z,11.12
2018-12-17T04:19:48.615Z,10.93
2018-12-17T04:20:19.709Z,9.45
2018-12-17T04:20:50.845Z,10.40
2018-12-17T04:21:21.954Z,10.80
2018-12-17T04:21:53.110Z,10.80
2018-12-17T04:22:24.204Z,9.53
2018-12-17T04:22:55.308Z,10.40
2018-12-17T04:23:26.419Z,10.88
2018-12-17T04:23:57.520Z,11.90
2018-12-17T04:24:28.621Z,11.75
2018-12-17T04:24:59.735Z,11.45
2018-12-17T04:25:30.852Z,12.03
2018-12-17T04:26:01.953Z,11.10
2018-12-17T04:26:33.060Z,12.45
2018-12-17T04:27:04.216Z,11.35
2018-12-17T04:27:35.331Z,11.00
2018-12-17T04:28:06.450Z,11.18
2018-12-17T04:28:37.573Z,11.35
2018-12-17T04:29:08.694Z,10.75
2018-12-17T04:29:39.802Z,11.43
2018-12-17T04:30:10.904Z,12.28
2018-12-17T04:30:42.016Z,11.38
2018-12-17T04:31:13.136Z,12.03
2018-12-17T04:31:44.274Z,11.75
2018-12-17T04:32:15.379Z,11.68
2018-12-17T04:32:46.524Z,11.90
2018-12-17T04:33:17.642Z,11.15
2018-12-17T04:33:48.747Z,11.55
2018-12-17T04:34:19.859Z,11.05
2018-12-17T04:34:50.956Z,11.83
2018-12-17T04:35:22.065Z,10.45
2018-12-17T04:35:53.213Z,12.37
2018-12-17T04:36:24.435Z,11.88
2018-12-17T04:36:55.536Z,10.55
2018-12-17T04:37:26.640Z,10.53
2018-12-17T04:37:57.835Z,11.88
2018-12-17T04:38:28.933Z,11.88
2018-12-17T04:39:00.038Z,12.55
2018-12-17T04:39:31.145Z,12.20
2018-12-17T04:40:02.253Z,10.93
2018-12-17T04:40:33.664Z,9.30
2018-12-17T04:41:04.774Z,10.75
2018-12-17T04:41:35.890Z,11.40
2018-12-17T04:42:07.032Z,12.13
2018-12-17T04:42:38.300Z,10.80
2018-12-17T04:43:09.404Z,11.65
2018-12-17T04:43:40.506Z,10.60
2018-12-17T04:44:11.615Z,11.88
2018-12-17T04:44:43.038Z,10.28
2018-12-17T04:45:14.177Z,9.23
2018-12-17T04:45:45.285Z,9.13
2018-12-17T04:46:16.388Z,11.80
2018-12-17T04:46:47.523Z,11.90
2018-12-17T04:47:18.639Z,11.28
2018-12-17T04:47:49.801Z,10.35
2018-12-17T04:48:20.903Z,11.95
2018-12-17T04:48:52.005Z,10.93
2018-12-17T04:49:23.106Z,11.00
2018-12-17T04:49:54.216Z,12.10
2018-12-17T04:50:25.329Z,10.68
2018-12-17T04:50:56.423Z,11.78
2018-12-17T04:51:27.529Z,9.98
2018-12-17T04:51:58.638Z,10.30
2018-12-17T04:52:29.745Z,11.50
2018-12-17T04:53:00.889Z,9.40
2018-12-17T04:53:31.993Z,10.80
2018-12-17T04:54:03.101Z,11.70
2018-12-17T04:54:34.233Z,12.13
2018-12-17T04:55:05.346Z,7.62
2018-12-17T04:55:36.462Z,9.30
2018-12-17T04:56:07.570Z,10.98
2018-12-17T04:56:38.702Z,9.35
2018-12-17T04:57:09.858Z,10.68
2018-12-17T04:57:40.973Z,9.85
2018-12-17T04:58:12.089Z,9.75
2018-12-17T04:58:43.240Z,11.33
2018-12-17T04:59:14.971Z,12.18
2018-12-17T04:59:46.379Z,11.08
2018-12-17T05:00:17.484Z,11.95
2018-12-17T05:00:48.588Z,12.10
2018-12-17T05:01:19.734Z,11.63
2018-12-17T05:01:50.976Z,11.15
2018-12-17T05:02:22.089Z,12.03
2018-12-17T05:02:53.217Z,11.18
2018-12-17T05:03:24.331Z,11.73
2018-12-17T05:03:55.478Z,10.60
2018-12-17T05:04:26.593Z,10.30
2018-12-17T05:04:57.712Z,10.75
2018-12-17T05:05:28.818Z,10.50
2018-12-17T05:05:59.941Z,10.60
2018-12-17T05:06:31.053Z,10.70
2018-12-17T05:07:02.174Z,11.08
2018-12-17T05:07:33.291Z,11.70
2018-12-17T05:08:04.399Z,12.40
2018-12-17T05:08:35.536Z,11.18
2018-12-17T05:09:06.647Z,11.05
2018-12-17T05:09:37.761Z,11.85
2018-12-17T05:10:08.869Z,11.08
2018-12-17T05:10:40.182Z,11.43
2018-12-17T05:11:11.391Z,11.83
2018-12-17T05:11:42.505Z,11.65
2018-12-17T05:12:13.654Z,12.35
2018-12-17T05:12:44.781Z,12.60
2018-12-17T05:13:15.888Z,11.80
2018-12-17T05:13:46.999Z,9.80
2018-12-17T05:14:18.107Z,11.65
2018-12-17T05:14:49.221Z,12.20
2018-12-17T05:15:20.397Z,12.53
2018-12-17T05:15:51.502Z,12.20
2018-12-17T05:16:22.613Z,12.20
2018-12-17T05:16:53.740Z,13.25
2018-12-17T05:17:24.865Z,12.28
2018-12-17T05:17:55.998Z,11.75
2018-12-17T05:18:27.116Z,10.88
2018-12-17T05:18:58.256Z,10.93
2018-12-17T05:19:29.364Z,11.12
2018-12-17T05:20:00.520Z,12.10
2018-12-17T05:20:31.687Z,11.93
2018-12-17T05:21:02.827Z,10.28
2018-12-17T05:21:33.963Z,12.53
2018-12-17T05:22:05.095Z,13.08
2018-12-17T05:22:36.224Z,9.53
2018-12-17T05:23:07.376Z,9.85
2018-12-17T05:23:38.590Z,10.72
2018-12-17T05:24:09.715Z,10.35
2018-12-17T05:24:40.877Z,9.43
2018-12-17T05:25:12.022Z,11.57
2018-12-17T05:25:43.202Z,11.88
2018-12-17T05:26:14.346Z,11.78
2018-12-17T05:26:45.483Z,11.88
2018-12-17T05:27:16.637Z,13.22
2018-12-17T05:27:48.785Z,11.70
2018-12-17T05:28:19.903Z,11.95
2018-12-17T05:28:51.676Z,12.13
2018-12-17T05:29:22.854Z,11.80
2018-12-17T05:29:53.968Z,11.80
2018-12-17T05:30:25.117Z,12.30
2018-12-17T05:30:56.277Z,10.20
2018-12-17T05:31:27.400Z,10.50
2018-12-17T05:31:58.531Z,12.68
2018-12-17T05:32:31.359Z,9.80
2018-12-17T05:33:02.707Z,12.15
2018-12-17T05:33:33.846Z,9.70
2018-12-17T05:34:04.971Z,10.28
2018-12-17T05:34:36.139Z,10.35
2018-12-17T05:35:07.284Z,10.63
2018-12-17T05:35:38.413Z,11.95
2018-12-17T05:36:09.543Z,13.05
2018-12-17T05:36:40.662Z,12.13
2018-12-17T05:37:11.789Z,13.45
2018-12-17T05:37:44.735Z,11.55
2018-12-17T05:38:15.965Z,12.10
2018-12-17T05:38:47.115Z,12.40
2018-12-17T05:39:18.235Z,11.50
2018-12-17T05:39:49.402Z,12.98
2018-12-17T05:40:20.535Z,12.05
2018-12-17T05:40:51.661Z,12.82
2018-12-17T05:41:22.844Z,10.78
2018-12-17T05:41:54.280Z,11.35
2018-12-17T05:42:26.049Z,11.90
2018-12-17T05:42:57.181Z,11.95
2018-12-17T05:43:28.326Z,12.07
2018-12-17T05:43:59.466Z,12.60
2018-12-17T05:44:30.595Z,12.47
2018-12-17T05:45:01.772Z,11.70
2018-12-17T05:45:32.948Z,12.65
2018-12-17T05:46:04.061Z,11.48
2018-12-17T05:46:35.189Z,12.25
2018-12-17T05:47:06.311Z,11.63
2018-12-17T05:47:37.437Z,12.45
2018-12-17T05:48:08.551Z,11.57
2018-12-17T05:48:39.678Z,12.00
2018-12-17T05:49:10.813Z,12.82
2018-12-17T05:49:41.935Z,12.60
2018-12-17T05:50:13.107Z,12.28
2018-12-17T05:50:44.278Z,13.05
2018-12-17T05:51:15.399Z,12.82
2018-12-17T05:51:46.524Z,13.08
2018-12-17T05:52:17.725Z,11.12
2018-12-17T05:52:48.837Z,12.30
2018-12-17T05:53:19.948Z,11.95
2018-12-17T05:53:51.064Z,11.60
2018-12-17T05:54:22.177Z,11.97
2018-12-17T05:54:53.284Z,12.88
2018-12-17T05:55:24.393Z,12.18
2018-12-17T05:55:55.509Z,12.73
2018-12-17T05:56:26.619Z,12.40
2018-12-17T05:56:57.761Z,12.55
2018-12-17T05:57:28.863Z,10.90
2018-12-17T05:57:59.973Z,10.58
2018-12-17T05:58:31.090Z,9.90
2018-12-17T05:59:02.382Z,12.10
2018-12-17T05:59:33.488Z,10.30
2018-12-17T06:00:04.595Z,11.95
2018-12-17T06:00:35.710Z,12.68
2018-12-17T06:01:06.822Z,13.20
2018-12-17T06:01:37.949Z,11.48
2018-12-17T06:02:09.093Z,12.70
2018-12-17T06:02:40.211Z,13.28
2018-12-17T06:03:11.317Z,13.10
2018-12-17T06:03:42.434Z,11.50
2018-12-17T06:04:13.536Z,11.90
2018-12-17T06:04:44.644Z,12.63
2018-12-17T06:05:15.870Z,12.80
2018-12-17T06:05:47.037Z,11.90
2018-12-17T06:06:18.179Z,12.43
2018-12-17T06:06:49.291Z,12.68
2018-12-17T06:07:20.408Z,13.80
2018-12-17T06:07:51.516Z,12.60
2018-12-17T06:08:22.948Z,13.40
2018-12-17T06:08:54.132Z,13.78
2018-12-17T06:09:25.251Z,13.15
2018-12-17T06:09:56.358Z,14.10
2018-12-17T06:10:27.528Z,14.95
2018-12-17T06:10:58.646Z,13.08
2018-12-17T06:11:29.780Z,12.35
2018-12-17T06:12:00.895Z,12.53
2018-12-17T06:12:32.005Z,13.20
2018-12-17T06:13:03.130Z,15.72
2018-12-17T06:13:34.253Z,13.13
2018-12-17T06:14:05.365Z,13.08
2018-12-17T06:14:36.518Z,14.28
2018-12-17T06:15:07.635Z,13.45
2018-12-17T06:15:38.739Z,12.60
2018-12-17T06:16:09.856Z,12.82
2018-12-17T06:16:40.961Z,13.13
2018-12-17T06:17:12.112Z,12.55
2018-12-17T06:17:43.226Z,14.75
2018-12-17T06:18:14.339Z,16.42
2018-12-17T06:18:45.483Z,16.02
2018-12-17T06:19:16.595Z,12.65
2018-12-17T06:19:47.705Z,12.70
2018-12-17T06:20:19.429Z,12.82
2018-12-17T06:20:50.575Z,11.95
2018-12-17T06:21:21.679Z,14.58
2018-12-17T06:21:52.806Z,12.33
2018-12-17T06:22:23.922Z,12.85
2018-12-17T06:22:55.031Z,12.23
2018-12-17T06:23:26.163Z,12.90
2018-12-17T06:23:57.370Z,12.25
2018-12-17T06:24:29.065Z,12.75
2018-12-17T06:25:00.180Z,13.40
2018-12-17T06:25:31.291Z,12.98
2018-12-17T06:26:02.416Z,12.70
2018-12-17T06:26:33.668Z,11.65
2018-12-17T06:27:05.026Z,12.68
2018-12-17T06:27:36.865Z,12.55
2018-12-17T06:28:09.341Z,12.98
2018-12-17T06:28:40.473Z,13.80
2018-12-17T06:29:11.620Z,20.65
2018-12-17T06:29:42.774Z,16.87
2018-12-17T06:30:13.881Z,11.40
2018-12-17T06:30:44.995Z,12.85
2018-12-17T06:31:16.096Z,13.40
2018-12-17T06:31:47.199Z,14.60
2018-12-17T06:32:18.316Z,12.78
2018-12-17T06:32:49.427Z,13.00
2018-12-17T06:33:20.561Z,13.22
2018-12-17T06:33:51.662Z,13.28
2018-12-17T06:34:22.822Z,15.83
2018-12-17T06:34:53.936Z,13.30
2018-12-17T06:35:25.044Z,23.15
2018-12-17T06:35:56.148Z,18.20
2018-12-17T06:36:27.265Z,14.18
2018-12-17T06:36:58.385Z,13.53
2018-12-17T06:37:29.495Z,12.95
2018-12-17T06:38:00.604Z,13.10
2018-12-17T06:38:31.719Z,14.85
2018-12-17T06:39:02.905Z,13.60
2018-12-17T06:39:34.031Z,12.07
2018-12-17T06:40:10.198Z,14.10
2018-12-17T06:40:38.290Z,13.85
2018-12-17T06:41:09.410Z,14.53
2018-12-17T06:41:40.516Z,13.35
2018-12-17T06:42:11.659Z,12.93